sensor_id;sensor_type;location;lat;lon;timestamp;P1;durP1;ratioP1;P2;durP2;ratioP2
287;SDS011;128;48.770;9.198;2023-11-19T00:01:59;3.90;;;2.90;;
287;SDS011;128;48.770;9.198;2023-11-19T00:04:25;8.03;;;3.50;;
287;SDS011;128;48.770;9.198;2023-11-19T00:06:51;4.77;;;3.20;;
287;SDS011;128;48.770;9.198;2023-11-19T00:09:17;5.40;;;2.90;;
287;SDS011;128;48.770;9.198;2023-11-19T00:11:43;5.23;;;2.33;;
287;SDS011;128;48.770;9.198;2023-11-19T00:14:09;8.03;;;2.50;;
287;SDS011;128;48.770;9.198;2023-11-19T00:16:35;4.70;;;2.23;;
287;SDS011;128;48.770;9.198;2023-11-19T00:19:01;9.93;;;3.37;;
287;SDS011;128;48.770;9.198;2023-11-19T00:21:29;5.53;;;2.33;;
287;SDS011;128;48.770;9.198;2023-11-19T00:23:54;4.57;;;2.60;;
287;SDS011;128;48.770;9.198;2023-11-19T00:26:23;5.60;;;2.63;;
287;SDS011;128;48.770;9.198;2023-11-19T00:28:49;6.63;;;3.07;;
287;SDS011;128;48.770;9.198;2023-11-19T00:31:15;8.60;;;2.80;;
287;SDS011;128;48.770;9.198;2023-11-19T00:33:41;4.50;;;2.80;;
287;SDS011;128;48.770;9.198;2023-11-19T00:36:07;5.63;;;3.20;;
287;SDS011;128;48.770;9.198;2023-11-19T00:38:33;6.17;;;2.80;;
287;SDS011;128;48.770;9.198;2023-11-19T00:40:59;5.93;;;2.73;;
287;SDS011;128;48.770;9.198;2023-11-19T00:43:25;5.40;;;2.87;;
287;SDS011;128;48.770;9.198;2023-11-19T00:45:52;4.47;;;2.50;;
287;SDS011;128;48.770;9.198;2023-11-19T00:48:18;6.93;;;2.93;;
287;SDS011;128;48.770;9.198;2023-11-19T00:50:44;4.90;;;2.80;;
287;SDS011;128;48.770;9.198;2023-11-19T00:53:11;3.70;;;2.33;;
287;SDS011;128;48.770;9.198;2023-11-19T00:55:37;4.20;;;3.77;;
287;SDS011;128;48.770;9.198;2023-11-19T00:58:03;4.00;;;3.13;;
287;SDS011;128;48.770;9.198;2023-11-19T01:00:29;6.27;;;3.20;;
287;SDS011;128;48.770;9.198;2023-11-19T01:02:57;3.70;;;2.60;;
287;SDS011;128;48.770;9.198;2023-11-19T01:05:23;5.30;;;2.53;;
287;SDS011;128;48.770;9.198;2023-11-19T01:07:49;8.57;;;1.97;;
287;SDS011;128;48.770;9.198;2023-11-19T01:10:15;3.77;;;1.90;;
287;SDS011;128;48.770;9.198;2023-11-19T01:12:41;3.43;;;2.13;;
287;SDS011;128;48.770;9.198;2023-11-19T01:15:07;2.90;;;1.93;;
287;SDS011;128;48.770;9.198;2023-11-19T01:17:33;2.70;;;1.90;;
287;SDS011;128;48.770;9.198;2023-11-19T01:20:01;5.57;;;2.90;;
287;SDS011;128;48.770;9.198;2023-11-19T01:22:27;3.57;;;1.70;;
287;SDS011;128;48.770;9.198;2023-11-19T01:24:53;3.40;;;1.93;;
287;SDS011;128;48.770;9.198;2023-11-19T01:27:19;3.77;;;1.93;;
287;SDS011;128;48.770;9.198;2023-11-19T01:29:45;3.17;;;1.93;;
287;SDS011;128;48.770;9.198;2023-11-19T01:32:11;2.00;;;1.30;;
287;SDS011;128;48.770;9.198;2023-11-19T01:34:37;2.50;;;1.50;;
287;SDS011;128;48.770;9.198;2023-11-19T01:37:03;1.30;;;1.10;;
287;SDS011;128;48.770;9.198;2023-11-19T01:39:29;1.43;;;0.90;;
287;SDS011;128;48.770;9.198;2023-11-19T01:41:55;1.10;;;0.73;;
287;SDS011;128;48.770;9.198;2023-11-19T01:44:21;2.13;;;1.07;;
287;SDS011;128;48.770;9.198;2023-11-19T01:46:47;1.40;;;0.97;;
287;SDS011;128;48.770;9.198;2023-11-19T01:49:14;3.33;;;0.80;;
287;SDS011;128;48.770;9.198;2023-11-19T01:51:41;3.27;;;1.00;;
287;SDS011;128;48.770;9.198;2023-11-19T01:54:07;2.37;;;1.20;;
287;SDS011;128;48.770;9.198;2023-11-19T01:56:33;1.50;;;0.80;;
287;SDS011;128;48.770;9.198;2023-11-19T01:59:00;1.90;;;1.00;;
287;SDS011;128;48.770;9.198;2023-11-19T02:01:27;2.90;;;0.80;;
287;SDS011;128;48.770;9.198;2023-11-19T02:03:54;1.23;;;0.83;;
287;SDS011;128;48.770;9.198;2023-11-19T02:06:20;1.43;;;0.80;;
287;SDS011;128;48.770;9.198;2023-11-19T02:08:46;1.20;;;0.80;;
287;SDS011;128;48.770;9.198;2023-11-19T02:11:12;2.43;;;1.30;;
287;SDS011;128;48.770;9.198;2023-11-19T02:13:39;3.00;;;1.00;;
287;SDS011;128;48.770;9.198;2023-11-19T02:16:06;5.70;;;1.30;;
287;SDS011;128;48.770;9.198;2023-11-19T02:18:34;5.07;;;1.70;;
287;SDS011;128;48.770;9.198;2023-11-19T02:21:00;3.90;;;1.20;;
287;SDS011;128;48.770;9.198;2023-11-19T02:23:26;2.90;;;1.53;;
287;SDS011;128;48.770;9.198;2023-11-19T02:28:31;5.13;;;2.23;;
287;SDS011;128;48.770;9.198;2023-11-19T02:30:57;4.27;;;2.43;;
287;SDS011;128;48.770;9.198;2023-11-19T02:33:23;19.03;;;2.60;;
287;SDS011;128;48.770;9.198;2023-11-19T02:35:49;4.07;;;2.40;;
287;SDS011;128;48.770;9.198;2023-11-19T02:38:16;5.73;;;2.80;;
287;SDS011;128;48.770;9.198;2023-11-19T02:40:42;4.30;;;2.30;;
287;SDS011;128;48.770;9.198;2023-11-19T02:43:08;4.93;;;2.63;;
287;SDS011;128;48.770;9.198;2023-11-19T02:45:34;7.43;;;2.43;;
287;SDS011;128;48.770;9.198;2023-11-19T02:48:00;1.80;;;1.30;;
287;SDS011;128;48.770;9.198;2023-11-19T02:50:26;2.93;;;1.50;;
287;SDS011;128;48.770;9.198;2023-11-19T02:52:53;2.70;;;1.87;;
287;SDS011;128;48.770;9.198;2023-11-19T02:55:21;4.57;;;2.70;;
287;SDS011;128;48.770;9.198;2023-11-19T02:57:48;20.60;;;3.50;;
287;SDS011;128;48.770;9.198;2023-11-19T03:00:23;4.00;;;1.80;;
287;SDS011;128;48.770;9.198;2023-11-19T03:02:57;6.53;;;2.10;;
287;SDS011;128;48.770;9.198;2023-11-19T03:05:42;5.40;;;2.57;;
287;SDS011;128;48.770;9.198;2023-11-19T03:08:09;7.60;;;2.10;;
287;SDS011;128;48.770;9.198;2023-11-19T03:10:35;8.87;;;3.13;;
287;SDS011;128;48.770;9.198;2023-11-19T03:13:01;6.90;;;3.00;;
287;SDS011;128;48.770;9.198;2023-11-19T03:15:27;8.33;;;3.00;;
287;SDS011;128;48.770;9.198;2023-11-19T03:17:53;8.47;;;2.93;;
287;SDS011;128;48.770;9.198;2023-11-19T03:20:19;5.80;;;3.07;;
287;SDS011;128;48.770;9.198;2023-11-19T03:22:45;10.63;;;2.60;;
287;SDS011;128;48.770;9.198;2023-11-19T03:25:11;3.50;;;2.17;;
287;SDS011;128;48.770;9.198;2023-11-19T03:27:38;3.30;;;2.07;;
287;SDS011;128;48.770;9.198;2023-11-19T03:30:07;2.23;;;1.40;;
287;SDS011;128;48.770;9.198;2023-11-19T03:32:34;7.57;;;3.10;;
287;SDS011;128;48.770;9.198;2023-11-19T03:35:01;5.03;;;2.87;;
287;SDS011;128;48.770;9.198;2023-11-19T03:37:29;5.60;;;2.60;;
287;SDS011;128;48.770;9.198;2023-11-19T03:39:56;8.03;;;2.40;;
287;SDS011;128;48.770;9.198;2023-11-19T03:42:24;12.00;;;2.30;;
287;SDS011;128;48.770;9.198;2023-11-19T03:44:51;5.00;;;2.50;;
287;SDS011;128;48.770;9.198;2023-11-19T03:47:17;5.40;;;2.90;;
287;SDS011;128;48.770;9.198;2023-11-19T03:49:47;3.63;;;2.10;;
287;SDS011;128;48.770;9.198;2023-11-19T03:52:13;4.43;;;2.30;;
287;SDS011;128;48.770;9.198;2023-11-19T03:54:39;4.20;;;2.20;;
287;SDS011;128;48.770;9.198;2023-11-19T03:57:05;3.03;;;1.07;;
287;SDS011;128;48.770;9.198;2023-11-19T03:59:31;3.77;;;1.73;;
287;SDS011;128;48.770;9.198;2023-11-19T04:01:58;1.63;;;1.03;;
287;SDS011;128;48.770;9.198;2023-11-19T04:04:25;1.90;;;0.97;;
287;SDS011;128;48.770;9.198;2023-11-19T04:06:52;2.90;;;0.73;;
287;SDS011;128;48.770;9.198;2023-11-19T04:09:17;0.90;;;0.60;;
287;SDS011;128;48.770;9.198;2023-11-19T04:11:43;1.77;;;0.60;;
287;SDS011;128;48.770;9.198;2023-11-19T04:14:11;0.93;;;0.60;;
287;SDS011;128;48.770;9.198;2023-11-19T04:16:38;0.90;;;0.57;;
287;SDS011;128;48.770;9.198;2023-11-19T04:19:04;1.00;;;0.70;;
287;SDS011;128;48.770;9.198;2023-11-19T04:21:30;0.80;;;0.50;;
287;SDS011;128;48.770;9.198;2023-11-19T04:23:55;1.83;;;0.70;;
287;SDS011;128;48.770;9.198;2023-11-19T04:26:22;2.30;;;0.70;;
287;SDS011;128;48.770;9.198;2023-11-19T04:28:47;1.00;;;0.60;;
287;SDS011;128;48.770;9.198;2023-11-19T04:31:14;1.53;;;0.60;;
287;SDS011;128;48.770;9.198;2023-11-19T04:33:41;0.80;;;0.50;;
287;SDS011;128;48.770;9.198;2023-11-19T04:36:07;0.80;;;0.50;;
287;SDS011;128;48.770;9.198;2023-11-19T04:38:33;0.90;;;0.50;;
287;SDS011;128;48.770;9.198;2023-11-19T04:40:59;0.97;;;0.50;;
287;SDS011;128;48.770;9.198;2023-11-19T04:43:25;0.90;;;0.60;;
287;SDS011;128;48.770;9.198;2023-11-19T04:45:51;0.80;;;0.50;;
287;SDS011;128;48.770;9.198;2023-11-19T04:48:17;0.90;;;0.50;;
287;SDS011;128;48.770;9.198;2023-11-19T04:50:43;0.80;;;0.50;;
287;SDS011;128;48.770;9.198;2023-11-19T04:53:09;2.13;;;1.10;;
287;SDS011;128;48.770;9.198;2023-11-19T04:55:35;1.00;;;0.60;;
287;SDS011;128;48.770;9.198;2023-11-19T04:58:01;0.80;;;0.50;;
287;SDS011;128;48.770;9.198;2023-11-19T05:00:28;2.80;;;0.60;;
287;SDS011;128;48.770;9.198;2023-11-19T05:02:54;5.53;;;0.70;;
287;SDS011;128;48.770;9.198;2023-11-19T05:05:20;1.27;;;0.60;;
287;SDS011;128;48.770;9.198;2023-11-19T05:07:46;0.80;;;0.50;;
287;SDS011;128;48.770;9.198;2023-11-19T05:10:12;1.27;;;0.60;;
287;SDS011;128;48.770;9.198;2023-11-19T05:12:38;0.80;;;0.50;;
287;SDS011;128;48.770;9.198;2023-11-19T05:15:04;5.53;;;0.77;;
287;SDS011;128;48.770;9.198;2023-11-19T05:17:30;1.27;;;0.60;;
287;SDS011;128;48.770;9.198;2023-11-19T05:19:56;1.93;;;0.97;;
287;SDS011;128;48.770;9.198;2023-11-19T05:22:22;1.77;;;0.60;;
287;SDS011;128;48.770;9.198;2023-11-19T05:24:48;1.90;;;0.70;;
287;SDS011;128;48.770;9.198;2023-11-19T05:27:14;1.00;;;0.70;;
287;SDS011;128;48.770;9.198;2023-11-19T05:29:40;1.97;;;0.70;;
287;SDS011;128;48.770;9.198;2023-11-19T05:32:07;1.60;;;0.70;;
287;SDS011;128;48.770;9.198;2023-11-19T05:34:33;0.80;;;0.60;;
287;SDS011;128;48.770;9.198;2023-11-19T05:36:59;1.40;;;0.93;;
287;SDS011;128;48.770;9.198;2023-11-19T05:39:25;2.93;;;0.90;;
287;SDS011;128;48.770;9.198;2023-11-19T05:41:51;2.53;;;1.53;;
287;SDS011;128;48.770;9.198;2023-11-19T05:44:17;1.27;;;0.70;;
287;SDS011;128;48.770;9.198;2023-11-19T05:46:44;0.90;;;0.70;;
287;SDS011;128;48.770;9.198;2023-11-19T05:49:10;1.77;;;1.00;;
287;SDS011;128;48.770;9.198;2023-11-19T05:51:37;1.10;;;0.63;;
287;SDS011;128;48.770;9.198;2023-11-19T05:54:04;1.50;;;1.13;;
287;SDS011;128;48.770;9.198;2023-11-19T05:56:31;1.13;;;0.87;;
287;SDS011;128;48.770;9.198;2023-11-19T05:58:58;1.50;;;0.80;;
287;SDS011;128;48.770;9.198;2023-11-19T06:01:26;4.50;;;0.70;;
287;SDS011;128;48.770;9.198;2023-11-19T06:03:52;0.80;;;0.60;;
287;SDS011;128;48.770;9.198;2023-11-19T06:06:18;2.27;;;0.90;;
287;SDS011;128;48.770;9.198;2023-11-19T06:08:44;0.90;;;0.60;;
287;SDS011;128;48.770;9.198;2023-11-19T06:11:10;1.37;;;0.70;;
287;SDS011;128;48.770;9.198;2023-11-19T06:13:43;2.50;;;0.80;;
287;SDS011;128;48.770;9.198;2023-11-19T06:16:09;1.00;;;0.70;;
287;SDS011;128;48.770;9.198;2023-11-19T06:18:36;2.13;;;0.70;;
287;SDS011;128;48.770;9.198;2023-11-19T06:21:02;5.23;;;0.60;;
287;SDS011;128;48.770;9.198;2023-11-19T06:23:28;1.37;;;0.60;;
287;SDS011;128;48.770;9.198;2023-11-19T06:25:54;1.23;;;0.60;;
287;SDS011;128;48.770;9.198;2023-11-19T06:28:20;1.73;;;0.70;;
287;SDS011;128;48.770;9.198;2023-11-19T06:30:45;1.20;;;0.87;;
287;SDS011;128;48.770;9.198;2023-11-19T06:33:14;1.10;;;0.70;;
287;SDS011;128;48.770;9.198;2023-11-19T06:35:40;0.97;;;0.70;;
287;SDS011;128;48.770;9.198;2023-11-19T06:38:06;1.27;;;0.80;;
287;SDS011;128;48.770;9.198;2023-11-19T06:40:32;1.30;;;0.70;;
287;SDS011;128;48.770;9.198;2023-11-19T06:43:00;1.07;;;0.70;;
287;SDS011;128;48.770;9.198;2023-11-19T06:45:27;0.93;;;0.60;;
287;SDS011;128;48.770;9.198;2023-11-19T06:47:54;1.10;;;0.80;;
287;SDS011;128;48.770;9.198;2023-11-19T06:50:20;0.90;;;0.57;;
287;SDS011;128;48.770;9.198;2023-11-19T06:52:46;3.30;;;1.10;;
287;SDS011;128;48.770;9.198;2023-11-19T06:55:12;1.20;;;0.80;;
287;SDS011;128;48.770;9.198;2023-11-19T06:57:38;1.37;;;0.60;;
287;SDS011;128;48.770;9.198;2023-11-19T07:00:05;2.50;;;1.20;;
287;SDS011;128;48.770;9.198;2023-11-19T07:02:31;1.00;;;0.60;;
287;SDS011;128;48.770;9.198;2023-11-19T07:04:57;1.77;;;1.03;;
287;SDS011;128;48.770;9.198;2023-11-19T07:07:25;1.00;;;0.70;;
287;SDS011;128;48.770;9.198;2023-11-19T07:09:51;1.70;;;0.93;;
287;SDS011;128;48.770;9.198;2023-11-19T07:12:17;1.30;;;0.70;;
287;SDS011;128;48.770;9.198;2023-11-19T07:14:43;1.00;;;0.60;;
287;SDS011;128;48.770;9.198;2023-11-19T07:17:09;1.37;;;0.87;;
287;SDS011;128;48.770;9.198;2023-11-19T07:19:35;1.00;;;0.70;;
287;SDS011;128;48.770;9.198;2023-11-19T07:22:02;4.37;;;0.93;;
287;SDS011;128;48.770;9.198;2023-11-19T07:24:28;3.30;;;0.80;;
287;SDS011;128;48.770;9.198;2023-11-19T07:26:54;2.40;;;1.00;;
287;SDS011;128;48.770;9.198;2023-11-19T07:29:21;1.30;;;0.90;;
287;SDS011;128;48.770;9.198;2023-11-19T07:31:48;1.63;;;0.80;;
287;SDS011;128;48.770;9.198;2023-11-19T07:34:14;0.97;;;0.70;;
287;SDS011;128;48.770;9.198;2023-11-19T07:36:40;1.10;;;0.70;;
287;SDS011;128;48.770;9.198;2023-11-19T07:39:06;3.70;;;1.60;;
287;SDS011;128;48.770;9.198;2023-11-19T07:41:33;1.43;;;0.93;;
287;SDS011;128;48.770;9.198;2023-11-19T07:43:59;2.00;;;0.70;;
287;SDS011;128;48.770;9.198;2023-11-19T07:46:26;1.13;;;0.70;;
287;SDS011;128;48.770;9.198;2023-11-19T07:48:52;10.73;;;1.00;;
287;SDS011;128;48.770;9.198;2023-11-19T07:51:18;1.90;;;0.93;;
287;SDS011;128;48.770;9.198;2023-11-19T07:53:44;1.03;;;0.60;;
287;SDS011;128;48.770;9.198;2023-11-19T07:56:10;1.33;;;0.80;;
287;SDS011;128;48.770;9.198;2023-11-19T07:58:36;2.80;;;1.00;;
287;SDS011;128;48.770;9.198;2023-11-19T08:01:02;1.23;;;0.77;;
287;SDS011;128;48.770;9.198;2023-11-19T08:03:28;10.40;;;0.70;;
287;SDS011;128;48.770;9.198;2023-11-19T08:05:59;0.90;;;0.67;;
287;SDS011;128;48.770;9.198;2023-11-19T08:08:25;1.03;;;0.70;;
287;SDS011;128;48.770;9.198;2023-11-19T08:10:51;1.00;;;0.50;;
287;SDS011;128;48.770;9.198;2023-11-19T08:13:18;2.27;;;0.60;;
287;SDS011;128;48.770;9.198;2023-11-19T08:15:45;1.80;;;0.90;;
287;SDS011;128;48.770;9.198;2023-11-19T08:18:11;0.90;;;0.60;;
287;SDS011;128;48.770;9.198;2023-11-19T08:20:38;1.20;;;0.67;;
287;SDS011;128;48.770;9.198;2023-11-19T08:23:04;2.50;;;0.90;;
287;SDS011;128;48.770;9.198;2023-11-19T08:25:30;2.33;;;1.50;;
287;SDS011;128;48.770;9.198;2023-11-19T08:27:58;1.10;;;0.60;;
287;SDS011;128;48.770;9.198;2023-11-19T08:30:24;1.70;;;0.97;;
287;SDS011;128;48.770;9.198;2023-11-19T08:32:50;2.50;;;0.70;;
287;SDS011;128;48.770;9.198;2023-11-19T08:35:16;1.20;;;0.57;;
287;SDS011;128;48.770;9.198;2023-11-19T08:37:42;0.90;;;0.50;;
287;SDS011;128;48.770;9.198;2023-11-19T08:40:08;2.60;;;0.70;;
287;SDS011;128;48.770;9.198;2023-11-19T08:42:34;1.80;;;0.70;;
287;SDS011;128;48.770;9.198;2023-11-19T08:45:01;1.83;;;0.80;;
287;SDS011;128;48.770;9.198;2023-11-19T08:47:27;1.13;;;0.70;;
287;SDS011;128;48.770;9.198;2023-11-19T08:49:53;1.20;;;0.70;;
287;SDS011;128;48.770;9.198;2023-11-19T08:52:20;1.73;;;0.90;;
287;SDS011;128;48.770;9.198;2023-11-19T08:54:45;3.67;;;0.80;;
287;SDS011;128;48.770;9.198;2023-11-19T08:57:11;2.70;;;0.77;;
287;SDS011;128;48.770;9.198;2023-11-19T08:59:37;1.07;;;0.67;;
287;SDS011;128;48.770;9.198;2023-11-19T09:02:06;1.10;;;0.67;;
287;SDS011;128;48.770;9.198;2023-11-19T09:04:33;1.97;;;0.70;;
287;SDS011;128;48.770;9.198;2023-11-19T09:06:59;1.50;;;0.70;;
287;SDS011;128;48.770;9.198;2023-11-19T09:09:25;1.43;;;0.80;;
287;SDS011;128;48.770;9.198;2023-11-19T09:11:51;1.97;;;0.77;;
287;SDS011;128;48.770;9.198;2023-11-19T09:14:17;1.53;;;0.77;;
287;SDS011;128;48.770;9.198;2023-11-19T09:16:43;2.60;;;0.60;;
287;SDS011;128;48.770;9.198;2023-11-19T09:19:09;1.27;;;0.70;;
287;SDS011;128;48.770;9.198;2023-11-19T09:21:35;1.57;;;0.80;;
287;SDS011;128;48.770;9.198;2023-11-19T09:24:03;1.40;;;0.60;;
287;SDS011;128;48.770;9.198;2023-11-19T09:26:29;3.57;;;1.10;;
287;SDS011;128;48.770;9.198;2023-11-19T09:28:55;2.53;;;0.80;;
287;SDS011;128;48.770;9.198;2023-11-19T09:31:21;1.23;;;0.87;;
287;SDS011;128;48.770;9.198;2023-11-19T09:33:47;5.33;;;1.07;;
287;SDS011;128;48.770;9.198;2023-11-19T09:36:13;2.30;;;0.87;;
287;SDS011;128;48.770;9.198;2023-11-19T09:38:40;1.00;;;0.57;;
287;SDS011;128;48.770;9.198;2023-11-19T09:41:06;1.57;;;0.60;;
287;SDS011;128;48.770;9.198;2023-11-19T09:43:37;3.23;;;1.40;;
287;SDS011;128;48.770;9.198;2023-11-19T09:46:06;1.90;;;0.60;;
287;SDS011;128;48.770;9.198;2023-11-19T09:48:36;3.63;;;0.80;;
287;SDS011;128;48.770;9.198;2023-11-19T09:51:03;1.17;;;0.70;;
287;SDS011;128;48.770;9.198;2023-11-19T09:53:30;9.93;;;1.00;;
287;SDS011;128;48.770;9.198;2023-11-19T09:55:56;2.67;;;0.93;;
287;SDS011;128;48.770;9.198;2023-11-19T09:58:23;1.93;;;0.80;;
287;SDS011;128;48.770;9.198;2023-11-19T10:00:49;2.70;;;1.33;;
287;SDS011;128;48.770;9.198;2023-11-19T10:03:17;2.03;;;1.23;;
287;SDS011;128;48.770;9.198;2023-11-19T10:05:43;3.70;;;1.40;;
287;SDS011;128;48.770;9.198;2023-11-19T10:08:09;1.50;;;1.00;;
287;SDS011;128;48.770;9.198;2023-11-19T10:10:36;2.87;;;1.07;;
287;SDS011;128;48.770;9.198;2023-11-19T10:13:02;2.23;;;1.17;;
287;SDS011;128;48.770;9.198;2023-11-19T10:15:28;1.33;;;0.70;;
287;SDS011;128;48.770;9.198;2023-11-19T10:17:56;1.50;;;0.90;;
287;SDS011;128;48.770;9.198;2023-11-19T10:20:23;2.60;;;0.67;;
287;SDS011;128;48.770;9.198;2023-11-19T10:22:52;1.93;;;1.00;;
287;SDS011;128;48.770;9.198;2023-11-19T10:25:21;3.33;;;0.80;;
287;SDS011;128;48.770;9.198;2023-11-19T10:27:48;1.63;;;1.13;;
287;SDS011;128;48.770;9.198;2023-11-19T10:30:17;6.20;;;0.87;;
287;SDS011;128;48.770;9.198;2023-11-19T10:32:43;1.20;;;0.83;;
287;SDS011;128;48.770;9.198;2023-11-19T10:35:09;12.10;;;2.90;;
287;SDS011;128;48.770;9.198;2023-11-19T10:37:37;1.07;;;0.80;;
287;SDS011;128;48.770;9.198;2023-11-19T10:40:03;2.40;;;0.70;;
287;SDS011;128;48.770;9.198;2023-11-19T10:42:30;1.57;;;0.87;;
287;SDS011;128;48.770;9.198;2023-11-19T10:44:56;2.30;;;0.93;;
287;SDS011;128;48.770;9.198;2023-11-19T10:47:22;3.33;;;0.80;;
287;SDS011;128;48.770;9.198;2023-11-19T10:49:48;1.87;;;0.70;;
287;SDS011;128;48.770;9.198;2023-11-19T10:52:17;3.33;;;0.90;;
287;SDS011;128;48.770;9.198;2023-11-19T10:54:48;1.30;;;0.70;;
287;SDS011;128;48.770;9.198;2023-11-19T10:57:16;2.07;;;0.70;;
287;SDS011;128;48.770;9.198;2023-11-19T10:59:45;2.13;;;1.00;;
287;SDS011;128;48.770;9.198;2023-11-19T11:02:11;1.50;;;0.90;;
287;SDS011;128;48.770;9.198;2023-11-19T11:04:40;2.17;;;0.90;;
287;SDS011;128;48.770;9.198;2023-11-19T11:07:07;2.73;;;0.80;;
287;SDS011;128;48.770;9.198;2023-11-19T11:09:34;2.90;;;0.90;;
287;SDS011;128;48.770;9.198;2023-11-19T11:12:01;1.60;;;0.60;;
287;SDS011;128;48.770;9.198;2023-11-19T11:14:28;1.23;;;0.77;;
287;SDS011;128;48.770;9.198;2023-11-19T11:16:54;1.70;;;0.80;;
287;SDS011;128;48.770;9.198;2023-11-19T11:19:21;3.20;;;0.70;;
287;SDS011;128;48.770;9.198;2023-11-19T11:21:52;3.23;;;0.80;;
287;SDS011;128;48.770;9.198;2023-11-19T11:29:17;4.00;;;0.73;;
287;SDS011;128;48.770;9.198;2023-11-19T11:36:57;5.63;;;1.13;;
287;SDS011;128;48.770;9.198;2023-11-19T11:39:24;1.93;;;0.83;;
287;SDS011;128;48.770;9.198;2023-11-19T11:47:19;12.10;;;1.10;;
287;SDS011;128;48.770;9.198;2023-11-19T11:49:45;2.27;;;1.77;;
287;SDS011;128;48.770;9.198;2023-11-19T11:52:12;2.17;;;1.20;;
287;SDS011;128;48.770;9.198;2023-11-19T11:54:40;4.23;;;0.90;;
287;SDS011;128;48.770;9.198;2023-11-19T11:57:10;2.70;;;0.90;;
287;SDS011;128;48.770;9.198;2023-11-19T11:59:46;1.97;;;0.80;;
287;SDS011;128;48.770;9.198;2023-11-19T12:02:13;1.67;;;0.60;;
287;SDS011;128;48.770;9.198;2023-11-19T12:04:41;1.57;;;0.50;;
287;SDS011;128;48.770;9.198;2023-11-19T12:07:13;3.67;;;1.00;;
287;SDS011;128;48.770;9.198;2023-11-19T12:09:40;2.43;;;0.70;;
287;SDS011;128;48.770;9.198;2023-11-19T12:12:07;3.20;;;0.90;;
287;SDS011;128;48.770;9.198;2023-11-19T12:20:00;10.43;;;1.20;;
287;SDS011;128;48.770;9.198;2023-11-19T12:22:26;2.90;;;0.73;;
287;SDS011;128;48.770;9.198;2023-11-19T12:24:55;6.00;;;0.83;;
287;SDS011;128;48.770;9.198;2023-11-19T12:27:22;4.27;;;0.90;;
287;SDS011;128;48.770;9.198;2023-11-19T12:29:48;1.50;;;0.70;;
287;SDS011;128;48.770;9.198;2023-11-19T12:32:14;3.00;;;1.03;;
287;SDS011;128;48.770;9.198;2023-11-19T12:34:40;2.87;;;0.70;;
287;SDS011;128;48.770;9.198;2023-11-19T12:37:07;4.10;;;0.80;;
287;SDS011;128;48.770;9.198;2023-11-19T12:39:35;3.53;;;0.90;;
287;SDS011;128;48.770;9.198;2023-11-19T12:42:01;3.33;;;1.87;;
287;SDS011;128;48.770;9.198;2023-11-19T12:44:27;3.77;;;0.83;;
287;SDS011;128;48.770;9.198;2023-11-19T12:47:26;1.50;;;0.70;;
287;SDS011;128;48.770;9.198;2023-11-19T12:49:55;2.13;;;1.37;;
287;SDS011;128;48.770;9.198;2023-11-19T12:52:21;1.90;;;0.60;;
287;SDS011;128;48.770;9.198;2023-11-19T12:54:48;2.20;;;0.80;;
287;SDS011;128;48.770;9.198;2023-11-19T12:57:14;1.80;;;1.07;;
287;SDS011;128;48.770;9.198;2023-11-19T12:59:40;5.23;;;0.87;;
287;SDS011;128;48.770;9.198;2023-11-19T13:02:06;4.10;;;0.80;;
287;SDS011;128;48.770;9.198;2023-11-19T13:04:33;1.67;;;0.80;;
287;SDS011;128;48.770;9.198;2023-11-19T13:06:59;3.23;;;0.90;;
287;SDS011;128;48.770;9.198;2023-11-19T13:09:26;4.40;;;1.30;;
287;SDS011;128;48.770;9.198;2023-11-19T13:11:53;2.20;;;1.20;;
287;SDS011;128;48.770;9.198;2023-11-19T13:14:19;6.70;;;2.40;;
287;SDS011;128;48.770;9.198;2023-11-19T13:16:46;1.43;;;1.00;;
287;SDS011;128;48.770;9.198;2023-11-19T13:19:12;7.23;;;1.40;;
287;SDS011;128;48.770;9.198;2023-11-19T13:21:38;2.70;;;0.70;;
287;SDS011;128;48.770;9.198;2023-11-19T13:24:05;1.37;;;0.87;;
287;SDS011;128;48.770;9.198;2023-11-19T13:26:31;1.27;;;0.73;;
287;SDS011;128;48.770;9.198;2023-11-19T13:28:57;2.47;;;0.93;;
287;SDS011;128;48.770;9.198;2023-11-19T13:31:23;3.23;;;0.87;;
287;SDS011;128;48.770;9.198;2023-11-19T13:33:49;2.13;;;0.90;;
287;SDS011;128;48.770;9.198;2023-11-19T13:36:15;1.30;;;0.67;;
287;SDS011;128;48.770;9.198;2023-11-19T13:38:41;2.97;;;0.93;;
287;SDS011;128;48.770;9.198;2023-11-19T13:41:09;2.93;;;1.07;;
287;SDS011;128;48.770;9.198;2023-11-19T13:43:36;1.70;;;0.70;;
287;SDS011;128;48.770;9.198;2023-11-19T13:46:02;3.00;;;0.87;;
287;SDS011;128;48.770;9.198;2023-11-19T13:48:28;1.73;;;0.80;;
287;SDS011;128;48.770;9.198;2023-11-19T13:50:55;1.90;;;0.70;;
287;SDS011;128;48.770;9.198;2023-11-19T13:53:21;1.50;;;1.00;;
287;SDS011;128;48.770;9.198;2023-11-19T13:55:48;5.47;;;1.00;;
287;SDS011;128;48.770;9.198;2023-11-19T13:58:14;2.00;;;0.77;;
287;SDS011;128;48.770;9.198;2023-11-19T14:00:40;3.03;;;1.20;;
287;SDS011;128;48.770;9.198;2023-11-19T14:03:07;2.10;;;1.17;;
287;SDS011;128;48.770;9.198;2023-11-19T14:05:34;1.60;;;0.90;;
287;SDS011;128;48.770;9.198;2023-11-19T14:08:00;1.20;;;0.77;;
287;SDS011;128;48.770;9.198;2023-11-19T14:10:26;2.07;;;1.03;;
287;SDS011;128;48.770;9.198;2023-11-19T14:12:52;1.63;;;0.90;;
287;SDS011;128;48.770;9.198;2023-11-19T14:15:18;1.30;;;0.70;;
287;SDS011;128;48.770;9.198;2023-11-19T14:17:44;2.93;;;1.20;;
287;SDS011;128;48.770;9.198;2023-11-19T14:20:10;3.23;;;0.90;;
287;SDS011;128;48.770;9.198;2023-11-19T14:22:40;1.77;;;0.90;;
287;SDS011;128;48.770;9.198;2023-11-19T14:25:07;1.83;;;0.80;;
287;SDS011;128;48.770;9.198;2023-11-19T14:27:35;2.83;;;0.80;;
287;SDS011;128;48.770;9.198;2023-11-19T14:30:03;1.50;;;1.00;;
287;SDS011;128;48.770;9.198;2023-11-19T14:32:29;4.90;;;0.90;;
287;SDS011;128;48.770;9.198;2023-11-19T14:34:55;1.27;;;0.97;;
287;SDS011;128;48.770;9.198;2023-11-19T14:37:21;5.40;;;1.17;;
287;SDS011;128;48.770;9.198;2023-11-19T14:39:47;2.50;;;0.93;;
287;SDS011;128;48.770;9.198;2023-11-19T14:42:15;3.03;;;1.00;;
287;SDS011;128;48.770;9.198;2023-11-19T14:44:41;2.43;;;0.80;;
287;SDS011;128;48.770;9.198;2023-11-19T14:47:07;3.93;;;0.83;;
287;SDS011;128;48.770;9.198;2023-11-19T14:49:36;3.23;;;0.70;;
287;SDS011;128;48.770;9.198;2023-11-19T14:52:02;1.33;;;0.60;;
287;SDS011;128;48.770;9.198;2023-11-19T14:54:28;2.70;;;0.77;;
287;SDS011;128;48.770;9.198;2023-11-19T14:56:54;2.97;;;1.70;;
287;SDS011;128;48.770;9.198;2023-11-19T14:59:21;2.63;;;1.00;;
287;SDS011;128;48.770;9.198;2023-11-19T15:01:46;2.27;;;1.00;;
287;SDS011;128;48.770;9.198;2023-11-19T15:04:12;1.30;;;0.70;;
287;SDS011;128;48.770;9.198;2023-11-19T15:06:38;2.73;;;0.80;;
287;SDS011;128;48.770;9.198;2023-11-19T15:09:05;1.30;;;0.70;;
287;SDS011;128;48.770;9.198;2023-11-19T15:11:32;1.57;;;0.90;;
287;SDS011;128;48.770;9.198;2023-11-19T15:13:58;3.67;;;1.10;;
287;SDS011;128;48.770;9.198;2023-11-19T15:16:25;2.03;;;0.80;;
287;SDS011;128;48.770;9.198;2023-11-19T15:18:56;2.80;;;0.80;;
287;SDS011;128;48.770;9.198;2023-11-19T15:21:24;2.87;;;1.30;;
287;SDS011;128;48.770;9.198;2023-11-19T15:23:51;10.63;;;1.00;;
287;SDS011;128;48.770;9.198;2023-11-19T15:26:17;1.40;;;0.90;;
287;SDS011;128;48.770;9.198;2023-11-19T15:28:43;2.10;;;1.20;;
287;SDS011;128;48.770;9.198;2023-11-19T15:31:09;1.10;;;0.73;;
287;SDS011;128;48.770;9.198;2023-11-19T15:33:35;2.30;;;0.93;;
287;SDS011;128;48.770;9.198;2023-11-19T15:36:01;1.83;;;1.07;;
287;SDS011;128;48.770;9.198;2023-11-19T15:38:32;5.80;;;1.33;;
287;SDS011;128;48.770;9.198;2023-11-19T15:40:58;1.83;;;0.90;;
287;SDS011;128;48.770;9.198;2023-11-19T15:43:24;4.00;;;1.10;;
287;SDS011;128;48.770;9.198;2023-11-19T15:45:50;2.47;;;0.93;;
287;SDS011;128;48.770;9.198;2023-11-19T15:48:16;2.07;;;0.90;;
287;SDS011;128;48.770;9.198;2023-11-19T15:50:43;3.07;;;0.87;;
287;SDS011;128;48.770;9.198;2023-11-19T15:53:09;4.60;;;1.27;;
287;SDS011;128;48.770;9.198;2023-11-19T15:55:35;3.20;;;1.17;;
287;SDS011;128;48.770;9.198;2023-11-19T15:58:01;3.00;;;1.00;;
287;SDS011;128;48.770;9.198;2023-11-19T16:00:27;1.20;;;0.80;;
287;SDS011;128;48.770;9.198;2023-11-19T16:02:53;2.40;;;0.70;;
287;SDS011;128;48.770;9.198;2023-11-19T16:05:20;3.30;;;1.17;;